aviador You're here:

OTBD Decoded Metar

DOHA in QATAR
Report Time2018-01-19 18:00:00
UTC Time2018-01-19 19:08:48
Flight Rules Old
Wind120° at 05 kt
W.Decomp.*RWY 15: 4.2 kt HW 2.6 kt LCW
W.Rank120° ranks 16
Current wind is below 120° avg. (6.7)
Visibility9999 m
Phenomena:N/A
Clouds:N/A
Expected CloudBase > 800 ft AGL from Temp-Dew spread
CeilingNone
Temp17°C (ISA +2)
Dew Point15°C (88% RH)
AAT16.8°C
QNH1017 hPa
Density Alt367 ft
Elevation33 ft
Report Wrong Elevation
Raw Report
METAR OTBD 191800Z 12005KT CAVOK 17/15 Q1017 NOSIG=

Extra information for OTBD:More info

Metar Taf Metar & Taf Last 4 Metars F.Rules Stats Wind Profile Meteogram Temp Stats Airport Information Weather charts Add Link Nearby VenuesMetar ALERT Operation Metar Decoded Social comments